createdAt,value
2017-04-13T17:25:11.679Z,18.7
2017-04-13T17:27:13.393Z,18.74
2017-04-13T17:29:28.967Z,18.64
2017-04-13T17:31:53.863Z,18.49
2017-04-13T17:34:17.747Z,18.63
2017-04-13T17:36:42.641Z,18.76
2017-04-13T17:38:58.123Z,18.49
2017-04-13T17:41:22.000Z,18.52
2017-04-13T17:43:45.980Z,18.52
2017-04-13T17:46:09.859Z,18.09
2017-04-13T17:48:25.331Z,18
2017-04-13T17:50:26.630Z,18.16
2017-04-13T17:52:50.458Z,17.94
2017-04-13T17:55:14.358Z,17.72
2017-04-13T17:57:38.145Z,17.79
2017-04-13T18:00:02.959Z,17.93
2017-04-13T18:02:26.807Z,17.37
2017-04-13T18:04:50.564Z,17.39
2017-04-13T18:07:14.469Z,17.38
2017-04-13T18:09:38.316Z,17.38
2017-04-13T18:13:38.364Z,17.3
2017-04-13T18:15:44.596Z,17.1
2017-04-13T18:18:16.382Z,16.97
2017-04-13T18:20:42.096Z,16.8
2017-04-13T18:21:59.977Z,16.77
2017-04-13T18:24:25.783Z,16.84
2017-04-13T18:26:57.255Z,16.94
2017-04-13T18:29:27.667Z,16.92
2017-04-13T18:33:28.457Z,16.64
2017-04-13T18:35:52.265Z,16.64
2017-04-13T18:38:02.474Z,16.47
2017-04-13T18:40:26.374Z,16.46
2017-04-13T18:42:49.964Z,16.34
2017-04-13T18:45:20.459Z,16.24
2017-04-13T18:47:44.227Z,16.4
2017-04-13T18:50:09.899Z,16.39
2017-04-13T18:52:34.704Z,16.43
2017-04-13T18:54:58.492Z,16.41
2017-04-13T18:57:22.157Z,16.24
2017-04-13T18:59:54.449Z,16.13
2017-04-13T19:02:04.647Z,16.06
2017-04-13T19:04:29.055Z,16.06
2017-04-13T19:06:56.341Z,16.22
2017-04-13T19:09:11.542Z,16.09
2017-04-13T19:11:35.619Z,15.85
2017-04-13T19:13:59.247Z,15.87
2017-04-13T19:16:23.153Z,15.87
2017-04-13T19:18:46.852Z,15.81
2017-04-13T19:21:10.509Z,15.63
2017-04-13T19:23:34.189Z,15.76
2017-04-13T19:25:57.842Z,15.59
2017-04-13T19:28:21.513Z,15.63
2017-04-13T19:30:45.166Z,15.66
2017-04-13T19:33:08.847Z,15.72
2017-04-13T19:35:32.533Z,15.65
2017-04-13T19:37:56.304Z,15.44
2017-04-13T19:40:20.027Z,15.29
2017-04-13T19:42:43.630Z,15.47
2017-04-13T19:45:07.309Z,15.54
2017-04-13T19:47:30.934Z,15.43
2017-04-13T19:49:54.489Z,15.33
2017-04-13T19:52:18.162Z,15.47
2017-04-13T19:54:41.768Z,15.27
2017-04-13T19:57:05.498Z,15.27
2017-04-13T19:59:29.015Z,15.26
2017-04-13T20:01:52.730Z,15.29
2017-04-13T20:04:16.380Z,15.14
2017-04-13T20:06:40.034Z,15.05
2017-04-13T20:09:03.742Z,14.97
2017-04-13T20:11:27.300Z,15.05
2017-04-13T20:13:50.962Z,15.04
2017-04-13T20:16:14.692Z,15.25
2017-04-13T20:18:17.113Z,15.11
2017-04-13T20:20:40.776Z,15.14
2017-04-13T20:23:04.390Z,15.26
2017-04-13T20:25:28.039Z,15.25
2017-04-13T20:27:51.694Z,15.15
2017-04-13T20:30:15.362Z,15.15
2017-04-13T20:32:39.056Z,14.94
2017-04-13T20:35:02.704Z,14.66
2017-04-13T20:37:26.431Z,14.59
2017-04-13T20:39:50.099Z,14.67
2017-04-13T20:42:13.784Z,14.63
2017-04-13T20:44:37.449Z,14.63
2017-04-13T20:47:01.077Z,14.66
2017-04-13T20:49:24.824Z,14.63
2017-04-13T20:51:50.254Z,14.68
2017-04-13T20:54:14.070Z,14.77
2017-04-13T20:56:39.808Z,14.77
2017-04-13T20:59:12.250Z,14.7
2017-04-13T21:01:35.915Z,14.61
2017-04-13T21:03:59.568Z,14.53
2017-04-13T21:06:23.136Z,14.51
2017-04-13T21:08:46.731Z,14.05
2017-04-13T21:11:10.287Z,14.05
2017-04-13T21:13:25.424Z,14.03
2017-04-13T21:15:49.019Z,14.18
2017-04-13T21:18:12.711Z,14.13
2017-04-13T21:20:36.390Z,14.04
2017-04-13T21:22:59.928Z,14.05
2017-04-13T21:25:23.493Z,14.05
2017-04-13T21:27:47.084Z,14.07
2017-04-13T21:30:10.697Z,13.85
2017-04-13T21:32:34.332Z,13.97
2017-04-13T21:34:57.877Z,13.93
2017-04-13T21:37:21.476Z,13.97
2017-04-13T21:39:45.029Z,14.05
2017-04-13T21:42:09.644Z,14.04
2017-04-13T21:44:33.194Z,14.04
2017-04-13T21:46:56.749Z,13.87
2017-04-13T21:49:20.209Z,13.71
2017-04-13T21:51:45.773Z,13.71
2017-04-13T21:54:09.321Z,13.67
2017-04-13T21:56:32.879Z,13.73
2017-04-13T21:58:56.473Z,13.67
2017-04-13T22:01:19.982Z,13.73
2017-04-13T22:03:43.592Z,13.65
2017-04-13T22:06:09.216Z,13.71
2017-04-13T22:08:34.015Z,13.62
2017-04-13T22:10:44.242Z,13.71
2017-04-13T22:12:45.417Z,13.65
2017-04-13T22:15:09.012Z,13.73
2017-04-13T22:17:32.440Z,13.58
2017-04-13T22:19:56.018Z,13.68
2017-04-13T22:22:19.585Z,13.6
2017-04-13T22:24:34.759Z,13.67
2017-04-13T22:26:58.378Z,13.85
2017-04-13T22:29:21.919Z,13.91
2017-04-13T22:31:23.557Z,13.83
2017-04-13T22:33:39.510Z,13.85
2017-04-13T22:36:03.114Z,13.86
2017-04-13T22:38:26.685Z,13.79
2017-04-13T22:40:50.253Z,13.94
2017-04-13T22:43:13.823Z,13.76
2017-04-13T22:45:37.295Z,13.83
2017-04-13T22:48:01.780Z,13.86
2017-04-13T22:50:26.300Z,14.07
2017-04-13T22:52:49.865Z,13.87
2017-04-13T22:55:13.323Z,13.85
2017-04-13T22:57:36.876Z,13.71
2017-04-13T23:00:00.472Z,13.93
2017-04-13T23:02:24.016Z,13.85
2017-04-13T23:04:47.592Z,13.89
2017-04-13T23:07:11.161Z,13.7
2017-04-13T23:09:34.631Z,13.75
2017-04-13T23:11:49.703Z,13.39
2017-04-13T23:14:13.172Z,13.36
2017-04-13T23:16:28.348Z,13.43
2017-04-13T23:18:51.831Z,13.47
2017-04-13T23:21:15.375Z,13.67
2017-04-13T23:23:39.971Z,13.7
2017-04-13T23:25:41.639Z,13.58
2017-04-13T23:27:56.798Z,13.65
2017-04-13T23:30:11.879Z,13.65
2017-04-13T23:32:36.360Z,13.65
2017-04-13T23:34:59.826Z,13.75
2017-04-13T23:37:24.364Z,13.62
2017-04-13T23:39:47.891Z,13.7
2017-04-13T23:41:49.557Z,13.61
2017-04-13T23:44:13.014Z,13.4
2017-04-13T23:46:28.050Z,13.52
2017-04-13T23:48:29.721Z,13.58
2017-04-13T23:50:53.213Z,13.43
2017-04-13T23:52:54.956Z,13.62
2017-04-13T23:55:18.530Z,13.67
2017-04-13T23:57:28.309Z,13.62
2017-04-13T23:59:51.847Z,13.6
